Главная страница
METAR-TAF:

METAR-TAF

Аэропорты :

Джинна

Карачи, Пакистан

широта: 24-54N, долгота: 067-08E, высота над уровнем моря: 21 м

Текущие метеонаблюдения

Эта сводка был подготовлена 38 минут назад, в 10:55 UTC
Ветер 15 Узел от юго-западный
Температура 34°C
Влажность 53%
Давление 995 hPa
Видимость: 6000 м
Рассеянная облачность на высоте 2000 фута

METAR: OPKC 251055Z 23015KT 6000 BKN020 34/23 Q0995 TEMPO 24015G20KT

Время: 16:33 (11:33 UTC)

Прогноз

Эта сводка был подготовлена 8 часа и 3 минут назад, в 03:30 UTC
Прогноз действительный с 25-го 06 UTC до 25-го 15 UTC
Ветер 10 Узел от западный-юго-западный с порывами до 20 Узел
Видимость: 6000 м
Рассеянная облачность на высоте 2000 фута

TAF: OPKC 250330Z 2506/2515 24010G20KT 6000 BKN020

Метеонаблюдения и прогнозы для более 4000 аэропортов (сводки METAR и TAF).

Имеющиеся станции представлены на карте желтыми и красными точками.

Чтобы увидеть название станции, наведите на нее мышь.

Затем щелкните, чтобы увидеть метеонаблюдения и метеопрогнозы.

Управление картой: чтобы увеличить масштаб, щелкните зеленые кнопки с черным крестиком; чтобы уменьшить масштаб, щелкните зеленую кнопку с тире; для просмотра соседних карт щелкайте зеленые стрелки.


METAR-TAF: